createdAt,value
2022-11-24T00:01:37.071Z,17.00
2022-11-24T00:04:06.012Z,13.33
2022-11-24T00:06:35.467Z,13.50
2022-11-24T00:09:04.185Z,14.00
2022-11-24T00:11:34.401Z,7.75
2022-11-24T00:14:02.294Z,5.50
2022-11-24T00:16:31.535Z,6.00
2022-11-24T00:19:00.579Z,13.00
2022-11-24T00:21:29.685Z,5.75
2022-11-24T00:23:57.104Z,6.00
2022-11-24T00:26:29.764Z,5.00
2022-11-24T00:29:05.575Z,9.75
2022-11-24T00:31:38.335Z,6.00
2022-11-24T00:34:12.251Z,8.00
2022-11-24T00:36:40.082Z,4.50
2022-11-24T00:39:13.207Z,6.00
2022-11-24T00:41:40.308Z,5.75
2022-11-24T00:44:07.628Z,6.50
2022-11-24T00:46:35.370Z,14.00
2022-11-24T00:49:02.565Z,8.75
2022-11-24T00:51:33.185Z,5.50
2022-11-24T00:54:01.533Z,6.75
2022-11-24T00:56:30.104Z,8.75
2022-11-24T00:58:57.663Z,9.00
2022-11-24T01:01:27.838Z,9.25
2022-11-24T01:03:57.820Z,9.00
2022-11-24T01:06:26.823Z,5.50
2022-11-24T01:08:54.626Z,8.50
2022-11-24T01:11:24.656Z,4.75
2022-11-24T01:13:59.719Z,5.25
2022-11-24T01:16:29.671Z,2.25
2022-11-24T01:18:57.481Z,5.25
2022-11-24T01:21:25.009Z,4.25
2022-11-24T01:23:52.106Z,3.50
2022-11-24T01:26:21.911Z,5.25
2022-11-24T01:28:54.218Z,3.25
2022-11-24T01:31:21.610Z,4.00
2022-11-24T01:33:48.836Z,3.25
2022-11-24T01:36:15.974Z,17.75
2022-11-24T01:38:43.090Z,13.50
2022-11-24T01:41:15.966Z,14.00
2022-11-24T01:43:44.515Z,11.50
2022-11-24T01:46:30.515Z,6.33
2022-11-24T01:49:10.309Z,9.00
2022-11-24T01:51:42.719Z,15.33
2022-11-24T01:54:15.534Z,15.67
2022-11-24T01:56:48.113Z,14.25
2022-11-24T01:59:17.840Z,13.33
2022-11-24T02:01:46.399Z,9.00
2022-11-24T02:04:18.079Z,6.00
2022-11-24T02:07:04.894Z,12.00
2022-11-24T02:10:06.795Z,12.33
2022-11-24T02:12:59.328Z,11.75
2022-11-24T02:15:45.341Z,12.50
2022-11-24T02:18:27.414Z,13.00
2022-11-24T02:21:13.525Z,6.00
2022-11-24T02:24:46.664Z,7.50
2022-11-24T02:27:38.793Z,5.75
2022-11-24T02:30:06.161Z,4.00
2022-11-24T02:32:33.864Z,2.25
2022-11-24T02:35:06.423Z,5.00
2022-11-24T02:37:33.633Z,5.50
2022-11-24T02:40:00.675Z,10.00
2022-11-24T02:42:32.697Z,8.75
2022-11-24T02:45:01.126Z,4.75
2022-11-24T02:47:28.938Z,5.00
2022-11-24T02:49:56.092Z,9.00
2022-11-24T02:52:23.539Z,12.67
2022-11-24T02:54:50.569Z,5.25
2022-11-24T02:57:17.636Z,9.00
2022-11-24T02:59:44.995Z,15.00
2022-11-24T03:02:12.152Z,5.25
2022-11-24T03:04:39.175Z,4.75
2022-11-24T03:07:06.371Z,11.00
2022-11-24T03:09:33.523Z,7.50
2022-11-24T03:12:00.574Z,9.75
2022-11-24T03:14:27.625Z,21.00
2022-11-24T03:16:54.681Z,10.25
2022-11-24T03:19:21.751Z,10.75
2022-11-24T03:21:48.826Z,9.00
2022-11-24T03:24:15.851Z,7.50
2022-11-24T03:26:43.315Z,8.00
2022-11-24T03:29:10.472Z,7.25
2022-11-24T03:31:37.691Z,4.00
2022-11-24T03:34:04.757Z,4.00
2022-11-24T03:36:31.826Z,5.00
2022-11-24T03:38:58.838Z,4.25
2022-11-24T03:41:26.379Z,3.75
2022-11-24T03:43:53.397Z,7.50
2022-11-24T03:46:20.513Z,5.00
2022-11-24T03:48:47.711Z,7.00
2022-11-24T03:51:14.774Z,6.00
2022-11-24T03:53:41.854Z,3.50
2022-11-24T03:56:09.083Z,1.50
2022-11-24T03:58:36.324Z,3.75
2022-11-24T04:01:03.974Z,1.50
2022-11-24T04:03:31.070Z,3.25
2022-11-24T04:05:58.125Z,1.25
2022-11-24T04:08:25.514Z,1.75
2022-11-24T04:10:54.737Z,0.25
2022-11-24T04:13:24.331Z,2.00
2022-11-24T04:15:52.375Z,3.50
2022-11-24T04:18:19.640Z,1.00
2022-11-24T04:20:50.683Z,1.75
2022-11-24T04:23:18.203Z,5.25
2022-11-24T04:25:45.299Z,6.00
2022-11-24T04:28:12.458Z,6.00
2022-11-24T04:30:42.672Z,2.75
2022-11-24T04:33:09.697Z,2.50
2022-11-24T04:35:36.767Z,1.75
2022-11-24T04:38:04.148Z,5.00
2022-11-24T04:40:31.320Z,4.25
2022-11-24T04:42:58.416Z,2.00
2022-11-24T04:45:25.464Z,1.00
2022-11-24T04:47:52.625Z,4.50
2022-11-24T04:50:19.788Z,5.00
2022-11-24T04:52:46.934Z,1.00
2022-11-24T04:55:14.017Z,5.75
2022-11-24T04:57:41.073Z,3.00
2022-11-24T05:00:09.473Z,2.00
2022-11-24T05:02:37.414Z,1.50
2022-11-24T05:05:05.967Z,1.00
2022-11-24T05:07:33.486Z,4.00
2022-11-24T05:10:18.830Z,1.25
2022-11-24T05:12:51.037Z,6.00
2022-11-24T05:15:18.368Z,6.50
2022-11-24T05:17:45.343Z,1.75
2022-11-24T05:20:12.363Z,0.75
2022-11-24T05:22:39.408Z,1.00
2022-11-24T05:25:06.647Z,1.00
2022-11-24T05:27:34.344Z,0.25
2022-11-24T05:30:01.386Z,2.00
2022-11-24T05:32:28.628Z,5.75
2022-11-24T05:34:55.659Z,10.75
2022-11-24T05:37:22.738Z,3.25
2022-11-24T05:39:49.677Z,3.75
2022-11-24T05:42:35.485Z,2.75
2022-11-24T05:45:02.424Z,3.50
2022-11-24T05:47:29.410Z,8.00
2022-11-24T05:49:56.725Z,4.75
2022-11-24T05:52:23.725Z,7.25
2022-11-24T05:54:50.730Z,3.50
2022-11-24T05:57:18.378Z,2.50
2022-11-24T05:59:45.822Z,2.25
2022-11-24T06:02:13.187Z,1.50
2022-11-24T06:04:40.538Z,2.75
2022-11-24T06:07:09.217Z,2.50
2022-11-24T06:09:41.015Z,15.50
2022-11-24T06:12:08.358Z,11.50
2022-11-24T06:14:35.831Z,6.00
2022-11-24T06:17:03.730Z,5.25
2022-11-24T06:19:31.356Z,5.25
2022-11-24T06:21:58.310Z,3.00
2022-11-24T06:24:25.246Z,5.50
2022-11-24T06:26:52.148Z,3.00
2022-11-24T06:29:19.037Z,26.67
2022-11-24T06:31:46.077Z,23.33
2022-11-24T06:34:13.454Z,39.67
2022-11-24T06:36:40.366Z,35.00
2022-11-24T06:39:07.552Z,27.67
2022-11-24T06:41:34.495Z,39.00
2022-11-24T06:44:04.105Z,33.00
2022-11-24T06:46:31.099Z,21.33
2022-11-24T06:48:59.857Z,40.00
2022-11-24T06:51:27.417Z,29.67
2022-11-24T06:53:54.853Z,22.00
2022-11-24T06:56:22.401Z,17.00
2022-11-24T06:58:52.055Z,13.25
2022-11-24T07:01:30.025Z,21.00
2022-11-24T07:03:57.745Z,25.67
2022-11-24T07:06:26.462Z,24.33
2022-11-24T07:08:53.529Z,23.00
2022-11-24T07:11:22.972Z,22.67
2022-11-24T07:13:56.502Z,14.75
2022-11-24T07:16:27.563Z,25.00
2022-11-24T07:18:55.308Z,26.33
2022-11-24T07:21:23.847Z,21.00
2022-11-24T07:23:55.704Z,31.33
2022-11-24T07:26:23.724Z,45.00
2022-11-24T07:28:51.075Z,16.33
2022-11-24T07:31:25.300Z,22.67
2022-11-24T07:33:54.429Z,29.33
2022-11-24T07:36:22.400Z,35.67
2022-11-24T07:38:49.549Z,45.67
2022-11-24T07:41:19.624Z,36.00
2022-11-24T07:43:47.235Z,37.33
2022-11-24T07:46:17.113Z,57.33
2022-11-24T07:48:45.984Z,40.00
2022-11-24T07:51:12.902Z,50.33
2022-11-24T07:53:39.993Z,40.33
2022-11-24T07:56:07.791Z,46.33
2022-11-24T07:58:36.788Z,55.00
2022-11-24T08:01:18.282Z,43.33
2022-11-24T08:03:47.100Z,32.33
2022-11-24T08:06:25.020Z,32.00
2022-11-24T08:08:55.302Z,33.33
2022-11-24T08:11:22.495Z,23.67
2022-11-24T08:13:49.407Z,19.00
2022-11-24T08:16:18.899Z,28.00
2022-11-24T08:18:51.233Z,13.33
2022-11-24T08:21:18.333Z,31.33
2022-11-24T08:23:45.209Z,24.00
2022-11-24T08:26:16.846Z,25.67
2022-11-24T08:28:44.897Z,22.00
2022-11-24T08:31:14.364Z,20.67
2022-11-24T08:33:42.413Z,14.00
2022-11-24T08:36:14.381Z,25.67
2022-11-24T08:38:41.379Z,25.67
2022-11-24T08:41:13.644Z,23.67
2022-11-24T08:43:41.158Z,37.33
2022-11-24T08:46:11.365Z,31.67
2022-11-24T08:48:38.446Z,21.33
2022-11-24T08:51:11.157Z,22.67
2022-11-24T08:53:39.086Z,22.00
2022-11-24T08:56:06.599Z,18.00
2022-11-24T08:58:33.919Z,38.00
2022-11-24T09:01:08.140Z,32.00
2022-11-24T09:03:35.459Z,28.00
2022-11-24T09:06:04.124Z,41.33
2022-11-24T09:08:31.791Z,36.33
2022-11-24T09:11:17.450Z,39.67
2022-11-24T09:13:44.913Z,33.67
2022-11-24T09:16:21.112Z,33.67
2022-11-24T09:18:48.214Z,34.00
2022-11-24T09:21:18.484Z,35.00
2022-11-24T09:23:48.902Z,56.67
2022-11-24T09:26:24.590Z,33.00
2022-11-24T09:28:54.764Z,47.33
2022-11-24T09:31:24.398Z,24.67
2022-11-24T09:33:52.660Z,44.33
2022-11-24T09:36:19.898Z,41.33
2022-11-24T09:38:47.149Z,40.67
2022-11-24T09:41:44.317Z,52.00
2022-11-24T09:44:42.066Z,62.67
2022-11-24T09:47:36.737Z,46.00
2022-11-24T09:50:06.889Z,65.00
2022-11-24T09:52:39.875Z,51.67
2022-11-24T09:55:25.797Z,58.33
2022-11-24T09:58:02.679Z,57.00
2022-11-24T10:00:30.359Z,47.00
2022-11-24T10:02:58.072Z,50.67
2022-11-24T10:05:27.809Z,48.00
2022-11-24T10:08:08.398Z,54.33
2022-11-24T10:10:54.008Z,65.00
2022-11-24T10:13:38.846Z,71.00
2022-11-24T10:16:14.877Z,77.00
2022-11-24T10:19:00.953Z,64.33
2022-11-24T10:22:05.866Z,74.67
2022-11-24T10:24:50.719Z,75.75
2022-11-24T10:27:19.611Z,68.67
2022-11-24T10:29:51.387Z,74.00
2022-11-24T10:32:23.611Z,77.00
2022-11-24T10:34:50.828Z,81.25
2022-11-24T10:37:27.134Z,75.67
2022-11-24T10:40:48.765Z,78.25
2022-11-24T10:43:11.837Z,79.00
2022-11-24T10:45:40.150Z,62.67
2022-11-24T10:48:16.795Z,70.33
2022-11-24T10:50:43.722Z,65.33
2022-11-24T10:53:33.625Z,70.67
2022-11-24T10:56:04.016Z,69.00
2022-11-24T10:58:39.127Z,71.67
2022-11-24T11:01:15.415Z,67.00
2022-11-24T11:03:52.735Z,68.67
2022-11-24T11:06:25.148Z,64.33
2022-11-24T11:09:07.509Z,66.33
2022-11-24T11:11:41.945Z,60.33
2022-11-24T11:14:13.214Z,64.67
2022-11-24T11:17:00.505Z,71.00
2022-11-24T11:19:48.826Z,72.67
2022-11-24T11:22:31.324Z,64.67
2022-11-24T11:25:38.393Z,55.67
2022-11-24T11:28:18.903Z,60.00
2022-11-24T11:31:17.412Z,75.00
2022-11-24T11:34:06.209Z,71.33
2022-11-24T11:36:41.848Z,76.75
2022-11-24T11:39:20.881Z,73.67
2022-11-24T11:41:52.403Z,80.25
2022-11-24T11:44:22.431Z,76.00
2022-11-24T11:46:49.430Z,71.33
2022-11-24T11:49:16.610Z,73.33
2022-11-24T11:52:12.931Z,80.67
2022-11-24T11:55:00.701Z,66.67
2022-11-24T11:57:42.802Z,55.00
2022-11-24T12:00:22.692Z,65.67
2022-11-24T12:03:01.508Z,66.00
2022-11-24T12:05:49.142Z,55.33
2022-11-24T12:09:03.223Z,60.00
2022-11-24T12:11:40.344Z,71.00
2022-11-24T12:14:27.482Z,60.33
2022-11-24T12:17:17.440Z,55.33
2022-11-24T12:19:53.210Z,74.33
2022-11-24T12:22:55.592Z,67.00
2022-11-24T12:25:28.991Z,75.67
2022-11-24T12:28:40.864Z,71.33
2022-11-24T12:31:15.311Z,81.00
2022-11-24T12:34:01.511Z,77.00
2022-11-24T12:36:31.669Z,66.33
2022-11-24T12:39:07.339Z,74.33
2022-11-24T12:42:15.518Z,73.67
2022-11-24T12:45:04.098Z,69.33
2022-11-24T12:47:48.430Z,71.33
2022-11-24T12:50:22.647Z,67.67
2022-11-24T12:53:21.299Z,50.00
2022-11-24T12:55:48.641Z,68.67
2022-11-24T12:58:56.675Z,59.00
2022-11-24T13:01:23.607Z,39.67
2022-11-24T13:04:23.995Z,63.67
2022-11-24T13:07:03.423Z,60.67
2022-11-24T13:09:30.398Z,56.67
2022-11-24T13:12:12.691Z,59.00
2022-11-24T13:14:43.833Z,46.67
2022-11-24T13:17:59.467Z,67.67
2022-11-24T13:20:35.785Z,59.33
2022-11-24T13:23:05.777Z,60.33
2022-11-24T13:25:36.172Z,66.00
2022-11-24T13:28:06.795Z,62.67
2022-11-24T13:30:33.648Z,62.00
2022-11-24T13:33:16.500Z,61.67
2022-11-24T13:36:02.615Z,58.67
2022-11-24T13:38:52.427Z,53.00
2022-11-24T13:41:34.541Z,66.00
2022-11-24T13:44:16.420Z,41.00
2022-11-24T13:47:01.576Z,50.33
2022-11-24T13:49:39.622Z,34.33
2022-11-24T13:52:40.553Z,34.33
2022-11-24T13:55:13.766Z,24.00
2022-11-24T13:58:05.521Z,47.67
2022-11-24T14:00:58.472Z,57.00
2022-11-24T14:04:28.125Z,44.67
2022-11-24T14:06:52.374Z,47.33
2022-11-24T14:09:27.613Z,34.67
2022-11-24T14:12:11.887Z,38.67
2022-11-24T14:14:39.109Z,34.33
2022-11-24T14:17:07.950Z,46.00
2022-11-24T14:19:34.905Z,60.67
2022-11-24T14:22:01.858Z,40.33
2022-11-24T14:24:38.071Z,38.00
2022-11-24T14:27:15.972Z,61.67
2022-11-24T14:30:04.934Z,79.67
2022-11-24T14:32:31.913Z,66.33
2022-11-24T14:34:58.855Z,77.00
2022-11-24T14:37:25.957Z,74.33
2022-11-24T14:39:52.931Z,62.33
2022-11-24T14:42:23.359Z,76.00
2022-11-24T14:45:04.050Z,66.67
2022-11-24T14:47:36.696Z,66.33
2022-11-24T14:50:16.395Z,61.67
2022-11-24T14:52:46.762Z,57.00
2022-11-24T14:55:31.491Z,72.67
2022-11-24T14:58:00.014Z,72.75
2022-11-24T15:00:33.765Z,72.00
2022-11-24T15:03:00.712Z,68.00
2022-11-24T15:05:58.663Z,78.25
2022-11-24T15:08:28.005Z,65.67
2022-11-24T15:11:00.716Z,72.33
2022-11-24T15:13:29.182Z,73.25
2022-11-24T15:16:02.868Z,69.33
2022-11-24T15:18:38.922Z,64.33
2022-11-24T15:21:06.190Z,66.33
2022-11-24T15:23:35.332Z,68.67
2022-11-24T15:26:02.162Z,68.00
2022-11-24T15:28:30.870Z,64.67
2022-11-24T15:31:03.425Z,54.67
2022-11-24T15:33:31.595Z,48.00
2022-11-24T15:36:00.091Z,49.00
2022-11-24T15:38:26.979Z,46.00
2022-11-24T15:40:56.659Z,67.67
2022-11-24T15:43:36.526Z,36.67
2022-11-24T15:46:04.579Z,52.33
2022-11-24T15:48:31.834Z,40.33
2022-11-24T15:51:01.561Z,34.67
2022-11-24T15:53:35.037Z,23.67
2022-11-24T15:56:03.763Z,19.00
2022-11-24T15:58:30.643Z,13.00
2022-11-24T16:00:57.625Z,11.67
2022-11-24T16:03:46.415Z,8.33
2022-11-24T16:06:23.646Z,13.67
2022-11-24T16:08:50.953Z,10.00
2022-11-24T16:11:17.856Z,15.00
2022-11-24T16:13:51.493Z,17.00
2022-11-24T16:16:19.950Z,23.67
2022-11-24T16:18:46.901Z,19.67
2022-11-24T16:21:13.770Z,18.67
2022-11-24T16:23:40.846Z,21.00
2022-11-24T16:26:08.175Z,30.00
2022-11-24T16:28:35.143Z,35.00
2022-11-24T16:31:02.546Z,32.33
2022-11-24T16:33:30.349Z,28.67
2022-11-24T16:35:57.544Z,18.67
2022-11-24T16:38:24.768Z,15.67
2022-11-24T16:40:56.624Z,12.33
2022-11-24T16:43:24.773Z,12.25
2022-11-24T16:46:16.338Z,8.00
2022-11-24T16:48:44.489Z,15.67
2022-11-24T16:51:12.538Z,6.67
2022-11-24T16:53:40.308Z,15.33
2022-11-24T16:56:08.237Z,15.33
2022-11-24T16:58:40.211Z,12.00
2022-11-24T17:01:11.797Z,18.00
2022-11-24T17:03:39.806Z,16.00
2022-11-24T17:06:08.851Z,20.00
2022-11-24T17:08:37.388Z,19.00
2022-11-24T17:11:12.276Z,13.00
2022-11-24T17:13:40.050Z,20.00
2022-11-24T17:16:09.630Z,10.00
2022-11-24T17:18:37.466Z,10.00
2022-11-24T17:21:09.453Z,12.00
2022-11-24T17:23:40.114Z,12.33
2022-11-24T17:26:10.760Z,9.00
2022-11-24T17:28:38.293Z,12.25
2022-11-24T17:31:21.782Z,7.33
2022-11-24T17:33:50.314Z,8.00
2022-11-24T17:36:17.637Z,11.67
2022-11-24T17:38:44.638Z,6.75
2022-11-24T17:41:11.893Z,16.75
2022-11-24T17:43:38.872Z,14.67
2022-11-24T17:46:06.387Z,16.33
2022-11-24T17:48:35.208Z,16.67
2022-11-24T17:51:04.810Z,11.00
2022-11-24T17:53:32.246Z,17.67
2022-11-24T17:56:00.858Z,10.25
2022-11-24T17:58:29.556Z,16.00
2022-11-24T18:01:00.971Z,10.67
2022-11-24T18:03:35.889Z,17.33
2022-11-24T18:06:07.650Z,11.67
2022-11-24T18:08:42.824Z,20.00
2022-11-24T18:11:19.785Z,22.67
2022-11-24T18:14:00.162Z,18.67
2022-11-24T18:16:35.253Z,21.33
2022-11-24T18:19:14.487Z,9.67
2022-11-24T18:21:47.932Z,13.00
2022-11-24T18:24:23.806Z,17.75
2022-11-24T18:26:51.678Z,7.75
2022-11-24T18:29:19.201Z,17.00
2022-11-24T18:31:46.598Z,23.00
2022-11-24T18:34:14.125Z,21.33
2022-11-24T18:36:41.686Z,21.33
2022-11-24T18:39:09.531Z,44.67
2022-11-24T18:41:38.284Z,35.67
2022-11-24T18:44:08.804Z,17.00
2022-11-24T18:46:37.322Z,24.33
2022-11-24T18:49:07.892Z,29.00
2022-11-24T18:51:37.199Z,0.00
2022-11-24T18:54:06.242Z,23.00
2022-11-24T18:56:33.728Z,15.67
2022-11-24T18:59:02.061Z,22.00
2022-11-24T19:01:30.935Z,18.33
2022-11-24T19:04:03.901Z,16.00
2022-11-24T19:06:37.156Z,11.33
2022-11-24T19:09:18.720Z,14.67
2022-11-24T19:11:47.251Z,20.67
2022-11-24T19:14:17.667Z,30.67
2022-11-24T19:16:46.650Z,26.00
2022-11-24T19:19:13.791Z,47.33
2022-11-24T19:21:41.465Z,42.67
2022-11-24T19:24:15.862Z,49.00
2022-11-24T19:26:42.816Z,58.67
2022-11-24T19:29:10.724Z,76.25
2022-11-24T19:31:39.722Z,74.00
2022-11-24T19:34:08.361Z,59.33
2022-11-24T19:36:36.256Z,50.00
2022-11-24T19:39:05.103Z,35.33
2022-11-24T19:41:33.319Z,38.33
2022-11-24T19:44:00.391Z,19.00
2022-11-24T19:46:30.007Z,25.67
2022-11-24T19:48:59.672Z,15.00
2022-11-24T19:51:32.648Z,22.67
2022-11-24T19:54:00.326Z,15.67
2022-11-24T19:56:29.700Z,13.00
2022-11-24T19:58:57.058Z,9.25
2022-11-24T20:01:42.805Z,5.00
2022-11-24T20:04:12.722Z,9.00
2022-11-24T20:06:42.608Z,21.00
2022-11-24T20:09:12.073Z,20.67
2022-11-24T20:11:39.657Z,8.25
2022-11-24T20:14:07.778Z,10.00
2022-11-24T20:16:35.429Z,10.67
2022-11-24T20:19:06.507Z,9.00
2022-11-24T20:21:35.480Z,12.00
2022-11-24T20:24:12.701Z,28.00
2022-11-24T20:26:45.668Z,24.33
2022-11-24T20:29:14.173Z,27.67
2022-11-24T20:31:44.203Z,25.00
2022-11-24T20:34:11.931Z,17.00
2022-11-24T20:36:41.524Z,14.33
2022-11-24T20:39:30.233Z,22.33
2022-11-24T20:41:57.160Z,31.00
2022-11-24T20:44:26.824Z,43.67
2022-11-24T20:46:56.937Z,12.67
2022-11-24T20:49:23.910Z,22.33
2022-11-24T20:51:54.653Z,36.33
2022-11-24T20:54:22.166Z,41.67
2022-11-24T20:56:49.581Z,28.67
2022-11-24T20:59:21.588Z,28.00
2022-11-24T21:01:50.242Z,14.00
2022-11-24T21:04:21.259Z,22.33
2022-11-24T21:06:48.284Z,36.00
2022-11-24T21:09:15.583Z,38.00
2022-11-24T21:11:42.699Z,49.00
2022-11-24T21:14:10.571Z,34.67
2022-11-24T21:16:39.915Z,24.33
2022-11-24T21:19:15.437Z,21.00
2022-11-24T21:21:43.142Z,35.33
2022-11-24T21:24:15.141Z,54.33
2022-11-24T21:26:43.528Z,49.00
2022-11-24T21:29:15.337Z,90.75
2022-11-24T21:31:42.320Z,99.25
2022-11-24T21:34:09.777Z,89.50
2022-11-24T21:36:40.889Z,78.00
2022-11-24T21:39:07.921Z,73.00
2022-11-24T21:41:35.004Z,66.33
2022-11-24T21:44:02.272Z,43.00
2022-11-24T21:46:38.984Z,45.67
2022-11-24T21:49:09.393Z,41.67
2022-11-24T21:51:36.602Z,49.00
2022-11-24T21:54:04.517Z,34.33
2022-11-24T21:56:31.543Z,26.67
2022-11-24T21:58:58.888Z,82.50
2022-11-24T22:01:28.744Z,87.25
2022-11-24T22:03:56.201Z,76.25
2022-11-24T22:06:23.753Z,54.33
2022-11-24T22:08:50.876Z,70.00
2022-11-24T22:11:20.395Z,56.67
2022-11-24T22:13:48.224Z,39.33
2022-11-24T22:16:24.175Z,53.33
2022-11-24T22:18:51.520Z,51.67
2022-11-24T22:21:24.385Z,45.00
2022-11-24T22:23:55.506Z,31.67
2022-11-24T22:26:23.907Z,20.00
2022-11-24T22:28:51.715Z,17.00
2022-11-24T22:31:23.221Z,17.67
2022-11-24T22:33:51.167Z,31.33
2022-11-24T22:36:21.097Z,24.00
2022-11-24T22:38:48.618Z,31.67
2022-11-24T22:41:18.036Z,20.00
2022-11-24T22:43:46.441Z,19.00
2022-11-24T22:46:14.496Z,21.00
2022-11-24T22:48:42.228Z,43.00
2022-11-24T22:51:17.121Z,39.33
2022-11-24T22:53:58.569Z,21.67
2022-11-24T22:56:28.050Z,19.67
2022-11-24T22:58:55.206Z,11.25
2022-11-24T23:01:24.731Z,13.00
2022-11-24T23:03:54.758Z,10.75
2022-11-24T23:06:29.393Z,13.00
2022-11-24T23:08:58.190Z,16.00
2022-11-24T23:11:36.367Z,8.50
2022-11-24T23:14:05.832Z,19.00
2022-11-24T23:16:33.050Z,17.67
2022-11-24T23:19:00.000Z,10.25
2022-11-24T23:21:32.497Z,13.00
2022-11-24T23:24:00.999Z,19.67
2022-11-24T23:26:31.357Z,13.75
2022-11-24T23:28:58.529Z,11.00
2022-11-24T23:31:30.540Z,17.00
2022-11-24T23:33:59.689Z,11.67
2022-11-24T23:36:27.663Z,15.33
2022-11-24T23:38:54.929Z,8.00
2022-11-24T23:41:25.002Z,11.33
2022-11-24T23:43:52.799Z,8.00
2022-11-24T23:46:23.984Z,12.25
2022-11-24T23:48:52.259Z,13.75
2022-11-24T23:51:23.275Z,13.75
2022-11-24T23:53:50.964Z,17.25
2022-11-24T23:56:31.699Z,9.50
2022-11-24T23:58:59.640Z,18.00
